sensor_id;sensor_type;location;lat;lon;timestamp;P1;durP1;ratioP1;P2;durP2;ratioP2
11984;SDS011;6052;53.246;10.368;2022-08-19T00:01:32;10.40;;;5.63;;
11984;SDS011;6052;53.246;10.368;2022-08-19T00:04:04;8.15;;;5.60;;
11984;SDS011;6052;53.246;10.368;2022-08-19T00:06:36;8.80;;;5.03;;
11984;SDS011;6052;53.246;10.368;2022-08-19T00:09:07;6.88;;;5.05;;
11984;SDS011;6052;53.246;10.368;2022-08-19T00:11:36;9.35;;;5.35;;
11984;SDS011;6052;53.246;10.368;2022-08-19T00:14:04;8.43;;;4.85;;
11984;SDS011;6052;53.246;10.368;2022-08-19T00:16:33;6.22;;;4.78;;
11984;SDS011;6052;53.246;10.368;2022-08-19T00:19:01;6.57;;;5.00;;
11984;SDS011;6052;53.246;10.368;2022-08-19T00:21:29;5.55;;;4.57;;
11984;SDS011;6052;53.246;10.368;2022-08-19T00:23:57;8.75;;;5.28;;
11984;SDS011;6052;53.246;10.368;2022-08-19T00:26:27;8.13;;;5.07;;
11984;SDS011;6052;53.246;10.368;2022-08-19T00:28:55;6.53;;;4.97;;
11984;SDS011;6052;53.246;10.368;2022-08-19T00:31:22;8.55;;;4.68;;
11984;SDS011;6052;53.246;10.368;2022-08-19T00:33:51;7.70;;;4.78;;
11984;SDS011;6052;53.246;10.368;2022-08-19T00:36:19;9.23;;;5.03;;
11984;SDS011;6052;53.246;10.368;2022-08-19T00:38:47;6.57;;;4.72;;
11984;SDS011;6052;53.246;10.368;2022-08-19T00:41:16;8.43;;;4.72;;
11984;SDS011;6052;53.246;10.368;2022-08-19T00:43:57;6.95;;;4.80;;
11984;SDS011;6052;53.246;10.368;2022-08-19T00:46:27;5.18;;;4.35;;
11984;SDS011;6052;53.246;10.368;2022-08-19T00:48:55;7.82;;;4.85;;
11984;SDS011;6052;53.246;10.368;2022-08-19T00:51:23;8.55;;;5.10;;
11984;SDS011;6052;53.246;10.368;2022-08-19T00:53:52;8.18;;;5.10;;
11984;SDS011;6052;53.246;10.368;2022-08-19T00:56:21;6.95;;;4.72;;
11984;SDS011;6052;53.246;10.368;2022-08-19T00:58:49;7.18;;;5.05;;
11984;SDS011;6052;53.246;10.368;2022-08-19T01:01:18;6.20;;;4.60;;
11984;SDS011;6052;53.246;10.368;2022-08-19T01:03:46;7.85;;;4.90;;
11984;SDS011;6052;53.246;10.368;2022-08-19T01:06:24;9.20;;;4.60;;
11984;SDS011;6052;53.246;10.368;2022-08-19T01:08:51;9.30;;;4.85;;
11984;SDS011;6052;53.246;10.368;2022-08-19T01:11:19;6.13;;;4.75;;
11984;SDS011;6052;53.246;10.368;2022-08-19T01:13:47;8.15;;;5.00;;
11984;SDS011;6052;53.246;10.368;2022-08-19T01:16:16;8.95;;;5.80;;
11984;SDS011;6052;53.246;10.368;2022-08-19T01:18:47;6.68;;;4.78;;
11984;SDS011;6052;53.246;10.368;2022-08-19T01:21:16;9.27;;;4.72;;
11984;SDS011;6052;53.246;10.368;2022-08-19T01:23:47;8.38;;;4.85;;
11984;SDS011;6052;53.246;10.368;2022-08-19T01:26:15;7.68;;;4.78;;
11984;SDS011;6052;53.246;10.368;2022-08-19T01:28:46;7.57;;;5.13;;
11984;SDS011;6052;53.246;10.368;2022-08-19T01:31:18;6.68;;;4.70;;
11984;SDS011;6052;53.246;10.368;2022-08-19T01:33:53;9.13;;;5.15;;
11984;SDS011;6052;53.246;10.368;2022-08-19T01:36:23;7.45;;;5.18;;
11984;SDS011;6052;53.246;10.368;2022-08-19T01:38:54;8.82;;;5.20;;
11984;SDS011;6052;53.246;10.368;2022-08-19T01:41:21;7.28;;;5.45;;
11984;SDS011;6052;53.246;10.368;2022-08-19T01:43:49;6.13;;;4.72;;
11984;SDS011;6052;53.246;10.368;2022-08-19T01:46:38;6.82;;;4.55;;
11984;SDS011;6052;53.246;10.368;2022-08-19T01:49:06;9.13;;;5.03;;
11984;SDS011;6052;53.246;10.368;2022-08-19T01:51:34;7.43;;;5.50;;
11984;SDS011;6052;53.246;10.368;2022-08-19T01:54:07;6.55;;;4.97;;
11984;SDS011;6052;53.246;10.368;2022-08-19T01:56:34;7.45;;;4.70;;
11984;SDS011;6052;53.246;10.368;2022-08-19T01:59:04;7.03;;;4.93;;
11984;SDS011;6052;53.246;10.368;2022-08-19T02:01:35;9.48;;;5.65;;
11984;SDS011;6052;53.246;10.368;2022-08-19T02:04:03;6.57;;;5.22;;
11984;SDS011;6052;53.246;10.368;2022-08-19T02:06:31;7.90;;;5.30;;
11984;SDS011;6052;53.246;10.368;2022-08-19T02:08:59;6.03;;;4.40;;
11984;SDS011;6052;53.246;10.368;2022-08-19T02:11:30;7.40;;;5.28;;
11984;SDS011;6052;53.246;10.368;2022-08-19T02:14:00;10.43;;;5.03;;
11984;SDS011;6052;53.246;10.368;2022-08-19T02:16:28;6.30;;;4.88;;
11984;SDS011;6052;53.246;10.368;2022-08-19T02:18:56;9.55;;;4.95;;
11984;SDS011;6052;53.246;10.368;2022-08-19T02:21:29;5.95;;;4.60;;
11984;SDS011;6052;53.246;10.368;2022-08-19T02:23:56;9.18;;;4.82;;
11984;SDS011;6052;53.246;10.368;2022-08-19T02:26:24;7.68;;;4.93;;
11984;SDS011;6052;53.246;10.368;2022-08-19T02:28:55;4.78;;;4.20;;
11984;SDS011;6052;53.246;10.368;2022-08-19T02:31:23;8.07;;;4.93;;
11984;SDS011;6052;53.246;10.368;2022-08-19T02:33:51;7.53;;;5.03;;
11984;SDS011;6052;53.246;10.368;2022-08-19T02:36:22;6.75;;;5.15;;
11984;SDS011;6052;53.246;10.368;2022-08-19T02:38:51;8.27;;;4.53;;
11984;SDS011;6052;53.246;10.368;2022-08-19T02:41:21;5.53;;;4.70;;
11984;SDS011;6052;53.246;10.368;2022-08-19T02:43:52;7.55;;;4.55;;
11984;SDS011;6052;53.246;10.368;2022-08-19T02:46:41;7.15;;;4.72;;
11984;SDS011;6052;53.246;10.368;2022-08-19T02:49:10;6.80;;;4.40;;
11984;SDS011;6052;53.246;10.368;2022-08-19T02:51:40;7.63;;;4.50;;
11984;SDS011;6052;53.246;10.368;2022-08-19T02:54:09;6.20;;;4.75;;
11984;SDS011;6052;53.246;10.368;2022-08-19T02:56:39;6.70;;;5.13;;
11984;SDS011;6052;53.246;10.368;2022-08-19T02:59:07;5.70;;;4.93;;
11984;SDS011;6052;53.246;10.368;2022-08-19T03:01:36;8.30;;;4.60;;
11984;SDS011;6052;53.246;10.368;2022-08-19T03:04:07;7.10;;;4.70;;
11984;SDS011;6052;53.246;10.368;2022-08-19T03:06:36;7.63;;;5.18;;
11984;SDS011;6052;53.246;10.368;2022-08-19T03:09:05;8.02;;;5.10;;
11984;SDS011;6052;53.246;10.368;2022-08-19T03:11:33;8.88;;;6.07;;
11984;SDS011;6052;53.246;10.368;2022-08-19T03:14:01;8.30;;;6.03;;
11984;SDS011;6052;53.246;10.368;2022-08-19T03:16:32;7.82;;;5.85;;
11984;SDS011;6052;53.246;10.368;2022-08-19T03:19:02;11.18;;;7.43;;
11984;SDS011;6052;53.246;10.368;2022-08-19T03:21:32;11.45;;;7.43;;
11984;SDS011;6052;53.246;10.368;2022-08-19T03:24:02;11.52;;;7.57;;
11984;SDS011;6052;53.246;10.368;2022-08-19T03:26:32;13.52;;;7.35;;
11984;SDS011;6052;53.246;10.368;2022-08-19T03:29:03;12.05;;;7.30;;
11984;SDS011;6052;53.246;10.368;2022-08-19T03:31:48;12.98;;;7.63;;
11984;SDS011;6052;53.246;10.368;2022-08-19T03:34:19;12.50;;;7.50;;
11984;SDS011;6052;53.246;10.368;2022-08-19T03:36:49;11.93;;;8.73;;
11984;SDS011;6052;53.246;10.368;2022-08-19T03:39:17;11.95;;;8.05;;
11984;SDS011;6052;53.246;10.368;2022-08-19T03:41:45;11.27;;;7.32;;
11984;SDS011;6052;53.246;10.368;2022-08-19T03:44:35;11.20;;;7.55;;
11984;SDS011;6052;53.246;10.368;2022-08-19T03:47:04;10.27;;;7.05;;
11984;SDS011;6052;53.246;10.368;2022-08-19T03:49:32;9.55;;;6.57;;
11984;SDS011;6052;53.246;10.368;2022-08-19T03:52:03;7.28;;;5.70;;
11984;SDS011;6052;53.246;10.368;2022-08-19T03:54:33;12.05;;;6.22;;
11984;SDS011;6052;53.246;10.368;2022-08-19T03:57:01;10.70;;;6.40;;
11984;SDS011;6052;53.246;10.368;2022-08-19T03:59:35;8.82;;;6.32;;
11984;SDS011;6052;53.246;10.368;2022-08-19T04:02:06;8.68;;;6.43;;
11984;SDS011;6052;53.246;10.368;2022-08-19T04:04:35;10.68;;;6.22;;
11984;SDS011;6052;53.246;10.368;2022-08-19T04:07:05;9.07;;;6.45;;
11984;SDS011;6052;53.246;10.368;2022-08-19T04:09:34;10.52;;;6.90;;
11984;SDS011;6052;53.246;10.368;2022-08-19T04:12:03;11.32;;;6.57;;
11984;SDS011;6052;53.246;10.368;2022-08-19T04:14:32;9.55;;;6.07;;
11984;SDS011;6052;53.246;10.368;2022-08-19T04:17:00;9.00;;;6.20;;
11984;SDS011;6052;53.246;10.368;2022-08-19T04:19:31;7.65;;;6.00;;
11984;SDS011;6052;53.246;10.368;2022-08-19T04:22:02;10.30;;;6.50;;
11984;SDS011;6052;53.246;10.368;2022-08-19T04:24:34;11.38;;;6.35;;
11984;SDS011;6052;53.246;10.368;2022-08-19T04:27:03;12.15;;;6.90;;
11984;SDS011;6052;53.246;10.368;2022-08-19T04:29:31;12.75;;;6.82;;
11984;SDS011;6052;53.246;10.368;2022-08-19T04:32:02;10.75;;;6.18;;
11984;SDS011;6052;53.246;10.368;2022-08-19T04:34:35;10.80;;;6.40;;
11984;SDS011;6052;53.246;10.368;2022-08-19T04:37:23;12.63;;;7.63;;
11984;SDS011;6052;53.246;10.368;2022-08-19T04:39:56;11.77;;;6.35;;
11984;SDS011;6052;53.246;10.368;2022-08-19T04:42:41;10.15;;;6.93;;
11984;SDS011;6052;53.246;10.368;2022-08-19T04:45:10;12.70;;;6.60;;
11984;SDS011;6052;53.246;10.368;2022-08-19T04:47:40;10.32;;;6.10;;
11984;SDS011;6052;53.246;10.368;2022-08-19T04:50:23;8.77;;;6.68;;
11984;SDS011;6052;53.246;10.368;2022-08-19T04:52:51;15.00;;;7.70;;
11984;SDS011;6052;53.246;10.368;2022-08-19T04:55:21;15.43;;;7.85;;
11984;SDS011;6052;53.246;10.368;2022-08-19T04:57:49;14.02;;;7.75;;
11984;SDS011;6052;53.246;10.368;2022-08-19T05:00:17;12.88;;;8.02;;
11984;SDS011;6052;53.246;10.368;2022-08-19T05:02:45;13.55;;;7.03;;
11984;SDS011;6052;53.246;10.368;2022-08-19T05:05:15;12.02;;;6.97;;
11984;SDS011;6052;53.246;10.368;2022-08-19T05:07:50;10.85;;;7.13;;
11984;SDS011;6052;53.246;10.368;2022-08-19T05:10:18;11.75;;;6.47;;
11984;SDS011;6052;53.246;10.368;2022-08-19T05:12:49;13.35;;;7.30;;
11984;SDS011;6052;53.246;10.368;2022-08-19T05:15:17;11.98;;;6.60;;
11984;SDS011;6052;53.246;10.368;2022-08-19T05:17:45;13.98;;;7.55;;
11984;SDS011;6052;53.246;10.368;2022-08-19T05:20:26;15.68;;;8.10;;
11984;SDS011;6052;53.246;10.368;2022-08-19T05:23:12;11.73;;;6.88;;
11984;SDS011;6052;53.246;10.368;2022-08-19T05:25:48;11.98;;;7.10;;
11984;SDS011;6052;53.246;10.368;2022-08-19T05:28:17;10.95;;;7.32;;
11984;SDS011;6052;53.246;10.368;2022-08-19T05:30:45;10.52;;;6.95;;
11984;SDS011;6052;53.246;10.368;2022-08-19T05:33:14;11.52;;;6.75;;
11984;SDS011;6052;53.246;10.368;2022-08-19T05:35:41;12.30;;;7.10;;
11984;SDS011;6052;53.246;10.368;2022-08-19T05:38:10;12.25;;;7.20;;
11984;SDS011;6052;53.246;10.368;2022-08-19T05:40:38;14.73;;;7.22;;
11984;SDS011;6052;53.246;10.368;2022-08-19T05:43:06;16.08;;;7.15;;
11984;SDS011;6052;53.246;10.368;2022-08-19T05:45:38;10.75;;;6.38;;
11984;SDS011;6052;53.246;10.368;2022-08-19T05:48:08;13.77;;;8.18;;
11984;SDS011;6052;53.246;10.368;2022-08-19T05:50:38;12.60;;;7.78;;
11984;SDS011;6052;53.246;10.368;2022-08-19T05:53:06;13.75;;;8.02;;
11984;SDS011;6052;53.246;10.368;2022-08-19T05:55:35;13.82;;;8.55;;
11984;SDS011;6052;53.246;10.368;2022-08-19T05:58:04;11.50;;;7.35;;
11984;SDS011;6052;53.246;10.368;2022-08-19T06:00:34;11.98;;;7.80;;
11984;SDS011;6052;53.246;10.368;2022-08-19T06:03:03;13.45;;;7.93;;
11984;SDS011;6052;53.246;10.368;2022-08-19T06:05:38;14.48;;;8.93;;
11984;SDS011;6052;53.246;10.368;2022-08-19T06:08:18;11.88;;;8.52;;
11984;SDS011;6052;53.246;10.368;2022-08-19T06:11:11;15.57;;;9.07;;
11984;SDS011;6052;53.246;10.368;2022-08-19T06:13:41;13.93;;;9.10;;
11984;SDS011;6052;53.246;10.368;2022-08-19T06:16:09;17.77;;;9.48;;
11984;SDS011;6052;53.246;10.368;2022-08-19T06:18:38;16.02;;;9.40;;
11984;SDS011;6052;53.246;10.368;2022-08-19T06:21:06;18.73;;;10.35;;
11984;SDS011;6052;53.246;10.368;2022-08-19T06:23:33;17.95;;;11.07;;
11984;SDS011;6052;53.246;10.368;2022-08-19T06:26:02;21.88;;;11.25;;
11984;SDS011;6052;53.246;10.368;2022-08-19T06:28:30;18.40;;;11.52;;
11984;SDS011;6052;53.246;10.368;2022-08-19T06:31:00;20.92;;;13.00;;
11984;SDS011;6052;53.246;10.368;2022-08-19T06:33:33;25.23;;;13.90;;
11984;SDS011;6052;53.246;10.368;2022-08-19T06:36:03;25.05;;;13.95;;
11984;SDS011;6052;53.246;10.368;2022-08-19T06:38:31;23.52;;;13.38;;
11984;SDS011;6052;53.246;10.368;2022-08-19T06:41:01;26.77;;;15.10;;
11984;SDS011;6052;53.246;10.368;2022-08-19T06:43:33;23.70;;;14.55;;
11984;SDS011;6052;53.246;10.368;2022-08-19T06:46:09;27.80;;;14.43;;
11984;SDS011;6052;53.246;10.368;2022-08-19T06:48:40;24.70;;;14.73;;
11984;SDS011;6052;53.246;10.368;2022-08-19T06:51:13;26.45;;;15.73;;
11984;SDS011;6052;53.246;10.368;2022-08-19T06:53:45;26.33;;;15.85;;
11984;SDS011;6052;53.246;10.368;2022-08-19T06:56:14;29.75;;;16.23;;
11984;SDS011;6052;53.246;10.368;2022-08-19T06:58:43;24.13;;;14.35;;
11984;SDS011;6052;53.246;10.368;2022-08-19T07:01:11;32.47;;;16.95;;
11984;SDS011;6052;53.246;10.368;2022-08-19T07:03:38;25.25;;;16.05;;
11984;SDS011;6052;53.246;10.368;2022-08-19T07:06:07;24.60;;;15.75;;
11984;SDS011;6052;53.246;10.368;2022-08-19T07:08:58;28.83;;;15.98;;
11984;SDS011;6052;53.246;10.368;2022-08-19T07:11:26;24.83;;;15.10;;
11984;SDS011;6052;53.246;10.368;2022-08-19T07:13:55;27.05;;;16.42;;
11984;SDS011;6052;53.246;10.368;2022-08-19T07:16:22;27.95;;;16.70;;
11984;SDS011;6052;53.246;10.368;2022-08-19T07:18:55;22.80;;;15.13;;
11984;SDS011;6052;53.246;10.368;2022-08-19T07:21:24;27.02;;;16.58;;
11984;SDS011;6052;53.246;10.368;2022-08-19T07:23:55;26.65;;;16.92;;
11984;SDS011;6052;53.246;10.368;2022-08-19T07:26:25;24.05;;;16.58;;
11984;SDS011;6052;53.246;10.368;2022-08-19T07:28:58;29.60;;;18.23;;
11984;SDS011;6052;53.246;10.368;2022-08-19T07:31:29;29.35;;;17.60;;
11984;SDS011;6052;53.246;10.368;2022-08-19T07:33:57;33.33;;;17.88;;
11984;SDS011;6052;53.246;10.368;2022-08-19T07:36:26;27.95;;;17.05;;
11984;SDS011;6052;53.246;10.368;2022-08-19T07:38:59;30.25;;;18.10;;
11984;SDS011;6052;53.246;10.368;2022-08-19T07:41:30;30.17;;;17.45;;
11984;SDS011;6052;53.246;10.368;2022-08-19T07:43:58;33.85;;;18.17;;
11984;SDS011;6052;53.246;10.368;2022-08-19T07:46:29;35.00;;;18.95;;
11984;SDS011;6052;53.246;10.368;2022-08-19T07:48:57;32.75;;;18.20;;
11984;SDS011;6052;53.246;10.368;2022-08-19T07:51:26;31.90;;;18.85;;
11984;SDS011;6052;53.246;10.368;2022-08-19T07:54:02;34.20;;;19.23;;
11984;SDS011;6052;53.246;10.368;2022-08-19T07:56:32;32.47;;;19.88;;
11984;SDS011;6052;53.246;10.368;2022-08-19T07:58:59;33.45;;;18.88;;
11984;SDS011;6052;53.246;10.368;2022-08-19T08:01:29;34.58;;;19.55;;
11984;SDS011;6052;53.246;10.368;2022-08-19T08:03:57;35.75;;;19.95;;
11984;SDS011;6052;53.246;10.368;2022-08-19T08:06:43;37.88;;;18.45;;
11984;SDS011;6052;53.246;10.368;2022-08-19T08:09:29;38.22;;;19.73;;
11984;SDS011;6052;53.246;10.368;2022-08-19T08:12:01;34.78;;;19.35;;
11984;SDS011;6052;53.246;10.368;2022-08-19T08:14:53;33.08;;;18.40;;
11984;SDS011;6052;53.246;10.368;2022-08-19T08:17:24;35.38;;;18.90;;
11984;SDS011;6052;53.246;10.368;2022-08-19T08:20:13;38.75;;;19.45;;
11984;SDS011;6052;53.246;10.368;2022-08-19T08:22:45;32.65;;;19.38;;
11984;SDS011;6052;53.246;10.368;2022-08-19T08:25:31;38.25;;;19.77;;
11984;SDS011;6052;53.246;10.368;2022-08-19T08:28:05;35.47;;;19.88;;
11984;SDS011;6052;53.246;10.368;2022-08-19T08:30:36;37.35;;;19.70;;
11984;SDS011;6052;53.246;10.368;2022-08-19T08:33:10;38.13;;;20.77;;
11984;SDS011;6052;53.246;10.368;2022-08-19T08:35:40;35.95;;;20.02;;
11984;SDS011;6052;53.246;10.368;2022-08-19T08:38:08;34.50;;;19.40;;
11984;SDS011;6052;53.246;10.368;2022-08-19T08:40:38;35.22;;;18.05;;
11984;SDS011;6052;53.246;10.368;2022-08-19T08:43:22;32.33;;;17.63;;
11984;SDS011;6052;53.246;10.368;2022-08-19T08:45:59;27.63;;;16.45;;
11984;SDS011;6052;53.246;10.368;2022-08-19T08:48:32;31.25;;;16.77;;
11984;SDS011;6052;53.246;10.368;2022-08-19T08:51:03;37.17;;;18.05;;
11984;SDS011;6052;53.246;10.368;2022-08-19T08:53:34;29.80;;;16.30;;
11984;SDS011;6052;53.246;10.368;2022-08-19T08:56:08;29.02;;;16.08;;
11984;SDS011;6052;53.246;10.368;2022-08-19T08:58:46;25.95;;;16.70;;
11984;SDS011;6052;53.246;10.368;2022-08-19T09:01:20;28.77;;;16.65;;
11984;SDS011;6052;53.246;10.368;2022-08-19T09:03:49;29.45;;;16.27;;
11984;SDS011;6052;53.246;10.368;2022-08-19T09:06:19;30.63;;;16.67;;
11984;SDS011;6052;53.246;10.368;2022-08-19T09:08:54;31.20;;;15.68;;
11984;SDS011;6052;53.246;10.368;2022-08-19T09:11:40;28.23;;;15.85;;
11984;SDS011;6052;53.246;10.368;2022-08-19T09:14:20;32.25;;;16.15;;
11984;SDS011;6052;53.246;10.368;2022-08-19T09:17:17;28.98;;;14.65;;
11984;SDS011;6052;53.246;10.368;2022-08-19T09:19:50;27.48;;;14.70;;
11984;SDS011;6052;53.246;10.368;2022-08-19T09:22:20;29.85;;;14.38;;
11984;SDS011;6052;53.246;10.368;2022-08-19T09:24:52;29.63;;;14.20;;
11984;SDS011;6052;53.246;10.368;2022-08-19T09:27:21;29.05;;;14.77;;
11984;SDS011;6052;53.246;10.368;2022-08-19T09:30:14;25.88;;;14.00;;
11984;SDS011;6052;53.246;10.368;2022-08-19T09:32:43;29.60;;;14.65;;
11984;SDS011;6052;53.246;10.368;2022-08-19T09:35:12;23.95;;;13.85;;
11984;SDS011;6052;53.246;10.368;2022-08-19T09:37:40;26.58;;;13.73;;
11984;SDS011;6052;53.246;10.368;2022-08-19T09:40:09;26.00;;;15.07;;
11984;SDS011;6052;53.246;10.368;2022-08-19T09:42:38;25.77;;;14.65;;
11984;SDS011;6052;53.246;10.368;2022-08-19T09:45:18;24.20;;;14.02;;
11984;SDS011;6052;53.246;10.368;2022-08-19T09:47:49;23.00;;;12.98;;
11984;SDS011;6052;53.246;10.368;2022-08-19T09:50:20;23.48;;;13.07;;
11984;SDS011;6052;53.246;10.368;2022-08-19T09:52:49;27.13;;;15.30;;
11984;SDS011;6052;53.246;10.368;2022-08-19T09:55:22;24.45;;;13.93;;
11984;SDS011;6052;53.246;10.368;2022-08-19T09:57:57;27.42;;;14.85;;
11984;SDS011;6052;53.246;10.368;2022-08-19T10:00:30;26.38;;;14.45;;
11984;SDS011;6052;53.246;10.368;2022-08-19T10:03:00;27.83;;;14.50;;
11984;SDS011;6052;53.246;10.368;2022-08-19T10:05:32;31.40;;;15.57;;
11984;SDS011;6052;53.246;10.368;2022-08-19T10:08:14;25.88;;;14.43;;
11984;SDS011;6052;53.246;10.368;2022-08-19T10:10:43;27.70;;;14.15;;
11984;SDS011;6052;53.246;10.368;2022-08-19T10:13:14;26.70;;;14.38;;
11984;SDS011;6052;53.246;10.368;2022-08-19T10:15:44;29.00;;;15.02;;
11984;SDS011;6052;53.246;10.368;2022-08-19T10:18:15;28.27;;;14.45;;
11984;SDS011;6052;53.246;10.368;2022-08-19T10:20:44;29.48;;;14.60;;
11984;SDS011;6052;53.246;10.368;2022-08-19T10:23:17;27.98;;;14.52;;
11984;SDS011;6052;53.246;10.368;2022-08-19T10:25:46;26.25;;;14.32;;
11984;SDS011;6052;53.246;10.368;2022-08-19T10:28:15;26.40;;;14.93;;
11984;SDS011;6052;53.246;10.368;2022-08-19T10:30:46;26.27;;;15.20;;
11984;SDS011;6052;53.246;10.368;2022-08-19T10:33:14;26.90;;;15.98;;
11984;SDS011;6052;53.246;10.368;2022-08-19T10:36:03;32.58;;;17.15;;
11984;SDS011;6052;53.246;10.368;2022-08-19T10:38:33;29.65;;;16.77;;
11984;SDS011;6052;53.246;10.368;2022-08-19T10:41:09;35.00;;;17.50;;
11984;SDS011;6052;53.246;10.368;2022-08-19T10:43:37;32.17;;;17.13;;
11984;SDS011;6052;53.246;10.368;2022-08-19T10:46:10;31.77;;;16.48;;
11984;SDS011;6052;53.246;10.368;2022-08-19T10:48:42;35.15;;;17.27;;
11984;SDS011;6052;53.246;10.368;2022-08-19T10:51:10;28.55;;;16.13;;
11984;SDS011;6052;53.246;10.368;2022-08-19T10:53:57;26.40;;;15.80;;
11984;SDS011;6052;53.246;10.368;2022-08-19T10:56:25;27.83;;;15.02;;
11984;SDS011;6052;53.246;10.368;2022-08-19T10:59:11;35.90;;;16.95;;
11984;SDS011;6052;53.246;10.368;2022-08-19T11:01:42;31.80;;;17.50;;
11984;SDS011;6052;53.246;10.368;2022-08-19T11:04:11;37.50;;;19.80;;
11984;SDS011;6052;53.246;10.368;2022-08-19T11:06:40;35.38;;;19.38;;
11984;SDS011;6052;53.246;10.368;2022-08-19T11:09:09;33.80;;;19.20;;
11984;SDS011;6052;53.246;10.368;2022-08-19T11:11:38;33.80;;;18.67;;
11984;SDS011;6052;53.246;10.368;2022-08-19T11:14:07;36.90;;;18.98;;
11984;SDS011;6052;53.246;10.368;2022-08-19T11:16:35;31.10;;;18.33;;
11984;SDS011;6052;53.246;10.368;2022-08-19T11:19:06;29.63;;;18.20;;
11984;SDS011;6052;53.246;10.368;2022-08-19T11:21:35;35.78;;;19.08;;
11984;SDS011;6052;53.246;10.368;2022-08-19T11:24:06;32.58;;;17.95;;
11984;SDS011;6052;53.246;10.368;2022-08-19T11:26:35;35.13;;;17.77;;
11984;SDS011;6052;53.246;10.368;2022-08-19T11:29:05;31.80;;;18.05;;
11984;SDS011;6052;53.246;10.368;2022-08-19T11:31:38;30.17;;;17.58;;
11984;SDS011;6052;53.246;10.368;2022-08-19T11:34:10;32.63;;;18.08;;
11984;SDS011;6052;53.246;10.368;2022-08-19T11:36:40;32.38;;;17.65;;
11984;SDS011;6052;53.246;10.368;2022-08-19T11:39:10;40.00;;;21.38;;
11984;SDS011;6052;53.246;10.368;2022-08-19T11:41:39;42.17;;;21.70;;
11984;SDS011;6052;53.246;10.368;2022-08-19T11:44:07;37.15;;;21.05;;
11984;SDS011;6052;53.246;10.368;2022-08-19T11:46:36;33.30;;;19.55;;
11984;SDS011;6052;53.246;10.368;2022-08-19T11:49:05;38.30;;;20.35;;
11984;SDS011;6052;53.246;10.368;2022-08-19T11:51:41;38.28;;;21.75;;
11984;SDS011;6052;53.246;10.368;2022-08-19T11:54:10;41.33;;;21.63;;
11984;SDS011;6052;53.246;10.368;2022-08-19T11:56:39;37.30;;;21.88;;
11984;SDS011;6052;53.246;10.368;2022-08-19T11:59:07;38.45;;;22.35;;
11984;SDS011;6052;53.246;10.368;2022-08-19T12:01:40;38.05;;;20.83;;
11984;SDS011;6052;53.246;10.368;2022-08-19T12:04:08;35.58;;;21.55;;
11984;SDS011;6052;53.246;10.368;2022-08-19T12:06:37;37.42;;;21.58;;
11984;SDS011;6052;53.246;10.368;2022-08-19T12:09:08;40.05;;;22.60;;
11984;SDS011;6052;53.246;10.368;2022-08-19T12:11:37;36.75;;;21.38;;
11984;SDS011;6052;53.246;10.368;2022-08-19T12:14:05;34.70;;;22.50;;
11984;SDS011;6052;53.246;10.368;2022-08-19T12:16:40;37.33;;;21.40;;
11984;SDS011;6052;53.246;10.368;2022-08-19T12:19:18;35.60;;;21.20;;
11984;SDS011;6052;53.246;10.368;2022-08-19T12:21:48;31.83;;;21.75;;
11984;SDS011;6052;53.246;10.368;2022-08-19T12:24:17;34.10;;;21.88;;
11984;SDS011;6052;53.246;10.368;2022-08-19T12:26:49;36.60;;;23.02;;
11984;SDS011;6052;53.246;10.368;2022-08-19T12:29:19;31.90;;;22.08;;
11984;SDS011;6052;53.246;10.368;2022-08-19T12:31:49;34.13;;;21.80;;
11984;SDS011;6052;53.246;10.368;2022-08-19T12:34:17;33.03;;;21.17;;
11984;SDS011;6052;53.246;10.368;2022-08-19T12:36:46;33.55;;;22.73;;
11984;SDS011;6052;53.246;10.368;2022-08-19T12:39:15;32.33;;;22.52;;
11984;SDS011;6052;53.246;10.368;2022-08-19T12:41:44;37.97;;;24.23;;
11984;SDS011;6052;53.246;10.368;2022-08-19T12:44:20;35.65;;;23.25;;
11984;SDS011;6052;53.246;10.368;2022-08-19T12:46:55;34.03;;;22.88;;
11984;SDS011;6052;53.246;10.368;2022-08-19T12:49:23;37.42;;;23.30;;
11984;SDS011;6052;53.246;10.368;2022-08-19T12:52:11;33.13;;;21.40;;
11984;SDS011;6052;53.246;10.368;2022-08-19T12:54:48;31.65;;;21.75;;
11984;SDS011;6052;53.246;10.368;2022-08-19T12:57:22;33.63;;;23.08;;
11984;SDS011;6052;53.246;10.368;2022-08-19T12:59:59;35.85;;;22.30;;
11984;SDS011;6052;53.246;10.368;2022-08-19T13:02:30;33.95;;;22.80;;
11984;SDS011;6052;53.246;10.368;2022-08-19T13:05:04;34.47;;;23.30;;
11984;SDS011;6052;53.246;10.368;2022-08-19T13:07:34;28.45;;;20.65;;
11984;SDS011;6052;53.246;10.368;2022-08-19T13:10:02;33.75;;;22.00;;
11984;SDS011;6052;53.246;10.368;2022-08-19T13:12:31;33.92;;;22.52;;
11984;SDS011;6052;53.246;10.368;2022-08-19T13:14:59;32.95;;;21.85;;
11984;SDS011;6052;53.246;10.368;2022-08-19T13:17:36;30.63;;;21.95;;
11984;SDS011;6052;53.246;10.368;2022-08-19T13:20:05;33.05;;;21.83;;
11984;SDS011;6052;53.246;10.368;2022-08-19T13:22:33;30.55;;;21.05;;
11984;SDS011;6052;53.246;10.368;2022-08-19T13:25:02;31.50;;;21.00;;
11984;SDS011;6052;53.246;10.368;2022-08-19T13:27:31;27.55;;;19.02;;
11984;SDS011;6052;53.246;10.368;2022-08-19T13:29:59;25.40;;;18.48;;
11984;SDS011;6052;53.246;10.368;2022-08-19T13:32:45;27.88;;;20.52;;
11984;SDS011;6052;53.246;10.368;2022-08-19T13:35:30;33.30;;;21.83;;
11984;SDS011;6052;53.246;10.368;2022-08-19T13:37:58;28.80;;;19.50;;
11984;SDS011;6052;53.246;10.368;2022-08-19T13:40:27;28.05;;;19.58;;
11984;SDS011;6052;53.246;10.368;2022-08-19T13:43:00;26.15;;;19.50;;
11984;SDS011;6052;53.246;10.368;2022-08-19T13:45:43;24.70;;;18.58;;
11984;SDS011;6052;53.246;10.368;2022-08-19T13:48:11;26.10;;;18.50;;
11984;SDS011;6052;53.246;10.368;2022-08-19T13:50:40;26.40;;;17.13;;
11984;SDS011;6052;53.246;10.368;2022-08-19T13:53:10;26.08;;;18.42;;
11984;SDS011;6052;53.246;10.368;2022-08-19T13:55:39;27.73;;;18.83;;
11984;SDS011;6052;53.246;10.368;2022-08-19T13:58:09;25.48;;;17.98;;
11984;SDS011;6052;53.246;10.368;2022-08-19T14:00:38;25.13;;;17.50;;
11984;SDS011;6052;53.246;10.368;2022-08-19T14:03:07;23.67;;;16.13;;
11984;SDS011;6052;53.246;10.368;2022-08-19T14:05:35;25.95;;;17.02;;
11984;SDS011;6052;53.246;10.368;2022-08-19T14:08:04;21.75;;;16.50;;
11984;SDS011;6052;53.246;10.368;2022-08-19T14:10:32;28.23;;;18.63;;
11984;SDS011;6052;53.246;10.368;2022-08-19T14:13:00;22.48;;;17.02;;
11984;SDS011;6052;53.246;10.368;2022-08-19T14:15:31;23.60;;;15.68;;
11984;SDS011;6052;53.246;10.368;2022-08-19T14:17:59;22.42;;;15.45;;
11984;SDS011;6052;53.246;10.368;2022-08-19T14:20:27;27.58;;;17.55;;
11984;SDS011;6052;53.246;10.368;2022-08-19T14:22:55;22.08;;;16.17;;
11984;SDS011;6052;53.246;10.368;2022-08-19T14:25:23;23.10;;;17.10;;
11984;SDS011;6052;53.246;10.368;2022-08-19T14:27:52;25.65;;;19.52;;
11984;SDS011;6052;53.246;10.368;2022-08-19T14:30:21;29.65;;;21.13;;
11984;SDS011;6052;53.246;10.368;2022-08-19T14:32:53;23.17;;;17.30;;
11984;SDS011;6052;53.246;10.368;2022-08-19T14:35:22;24.25;;;16.70;;
11984;SDS011;6052;53.246;10.368;2022-08-19T14:37:50;25.33;;;16.40;;
11984;SDS011;6052;53.246;10.368;2022-08-19T14:40:22;25.27;;;16.55;;
11984;SDS011;6052;53.246;10.368;2022-08-19T14:42:53;20.92;;;15.52;;
11984;SDS011;6052;53.246;10.368;2022-08-19T14:45:22;22.42;;;16.90;;
11984;SDS011;6052;53.246;10.368;2022-08-19T14:47:49;22.75;;;16.40;;
11984;SDS011;6052;53.246;10.368;2022-08-19T14:50:19;23.40;;;17.13;;
11984;SDS011;6052;53.246;10.368;2022-08-19T14:52:47;24.70;;;16.77;;
11984;SDS011;6052;53.246;10.368;2022-08-19T14:55:16;22.08;;;16.45;;